createdAt,value
2018-12-21T00:00:28.368Z,98456.31
2018-12-21T00:05:33.360Z,98444.18
2018-12-21T00:10:38.244Z,98432.89
2018-12-21T00:15:43.074Z,98410.64
2018-12-21T00:20:47.878Z,98400.36
2018-12-21T00:25:52.769Z,98405.09
2018-12-21T00:31:01.665Z,98402.19
2018-12-21T00:36:10.524Z,98394.25
2018-12-21T00:41:15.034Z,98389.95
2018-12-21T00:46:21.849Z,98380.27
2018-12-21T00:51:30.339Z,98380.56
2018-12-21T00:56:33.729Z,98382.27
2018-12-21T01:01:38.689Z,98380.34
2018-12-21T01:06:43.541Z,98364.66
2018-12-21T01:11:48.408Z,98356.27
2018-12-21T01:16:53.154Z,98353.59
2018-12-21T01:21:57.919Z,98362.11
2018-12-21T01:27:12.319Z,98366.12
2018-12-21T01:32:17.483Z,98367.33
2018-12-21T01:37:23.303Z,98362.29
2018-12-21T01:42:28.261Z,98369.24
2018-12-21T01:47:33.153Z,98375.93
2018-12-21T01:52:38.043Z,98380.41
2018-12-21T01:57:42.852Z,98371.52
2018-12-21T02:02:47.591Z,98393.78
2018-12-21T02:07:52.464Z,98391.98
2018-12-21T02:12:57.364Z,98393.05
2018-12-21T02:18:02.249Z,98401.44
2018-12-21T02:23:19.599Z,98416.14
2018-12-21T02:28:24.199Z,98427.91
2018-12-21T02:33:29.049Z,98420.81
2018-12-21T02:38:34.029Z,98422.93
2018-12-21T02:43:38.890Z,98422.16
2018-12-21T02:48:43.635Z,98422.11
2018-12-21T02:54:00.139Z,98429.07
2018-12-21T02:59:05.191Z,98421.14
2018-12-21T03:04:10.245Z,98437.48
2018-12-21T03:09:15.509Z,98423.84
2018-12-21T03:19:58.424Z,98446.48
2018-12-21T03:25:14.734Z,98435.78
2018-12-21T03:30:19.494Z,98443.16
2018-12-21T03:35:24.547Z,98450.62
2018-12-21T03:40:29.499Z,98432.02
2018-12-21T03:45:34.400Z,98464.88
2018-12-21T03:50:39.234Z,98465.75
2018-12-21T03:55:44.094Z,98459.08
2018-12-21T04:00:48.934Z,98458.52
2018-12-21T04:05:53.894Z,98454.78
2018-12-21T04:10:58.775Z,98485.64
2018-12-21T04:16:03.711Z,98488.21
2018-12-21T04:21:08.545Z,98465.50
2018-12-21T04:26:13.519Z,98481.89
2018-12-21T04:31:18.444Z,98501.34
2018-12-21T04:36:23.283Z,98494.09
2018-12-21T04:41:28.244Z,98509.91
2018-12-21T04:46:33.096Z,98520.41
2018-12-21T04:51:37.954Z,98514.56
2018-12-21T04:56:42.844Z,98522.08
2018-12-21T05:01:47.730Z,98534.64
2018-12-21T05:06:52.678Z,98537.02
2018-12-21T05:11:57.988Z,98543.98
2018-12-21T05:17:02.999Z,98561.37
2018-12-21T05:22:07.894Z,98545.33
2018-12-21T05:27:12.703Z,98569.63
2018-12-21T05:32:17.654Z,98577.04
2018-12-21T05:37:23.432Z,98595.50
2018-12-21T05:42:28.450Z,98606.77
2018-12-21T05:53:01.684Z,98626.48
2018-12-21T05:58:06.600Z,98651.80
2018-12-21T06:03:11.635Z,98651.69
2018-12-21T06:08:16.453Z,98661.80
2018-12-21T06:13:21.239Z,98661.75
2018-12-21T06:18:26.079Z,98681.97
2018-12-21T06:23:30.924Z,98664.48
2018-12-21T06:28:35.771Z,98692.63
2018-12-21T06:33:40.628Z,98694.70
2018-12-21T06:38:45.459Z,98698.84
2018-12-21T06:43:50.421Z,98726.77
2018-12-21T06:48:55.274Z,98723.64
2018-12-21T06:54:00.070Z,98724.81
2018-12-21T06:59:04.866Z,98738.61
2018-12-21T07:04:09.780Z,98766.06
2018-12-21T07:09:14.738Z,98752.73
2018-12-21T07:14:19.579Z,98769.64
2018-12-21T07:19:24.459Z,98772.99
2018-12-21T07:24:29.386Z,98791.28
2018-12-21T07:29:34.204Z,98774.33
2018-12-21T07:34:39.070Z,98798.09
2018-12-21T07:39:44.036Z,98795.35
2018-12-21T07:44:49.098Z,98815.73
2018-12-21T08:06:20.063Z,98810.78
2018-12-21T08:11:24.863Z,98845.45
2018-12-21T08:16:29.879Z,98877.86
2018-12-21T08:21:34.848Z,98874.70
2018-12-21T08:26:39.708Z,98892.19
2018-12-21T08:37:07.333Z,98916.42
2018-12-21T08:42:12.173Z,98926.94
2018-12-21T08:47:17.238Z,98936.51
2018-12-21T08:52:23.263Z,98961.98
2018-12-21T08:57:28.138Z,98966.48
2018-12-21T09:02:33.055Z,98956.66
2018-12-21T09:07:37.848Z,98955.81
2018-12-21T09:12:42.690Z,98970.54
2018-12-21T09:17:47.649Z,98968.83
2018-12-21T09:22:52.655Z,98975.11
2018-12-21T09:27:57.552Z,99008.91
2018-12-21T09:33:02.478Z,99028.91
2018-12-21T09:38:07.283Z,99039.19
2018-12-21T09:43:11.993Z,99053.51
2018-12-21T09:48:17.045Z,99058.14
2018-12-21T09:53:21.857Z,99062.00
2018-12-21T09:58:26.792Z,99073.37
2018-12-21T10:03:31.697Z,99081.68
2018-12-21T10:08:36.471Z,99093.30
2018-12-21T10:13:41.398Z,99102.17
2018-12-21T10:18:46.348Z,99114.68
2018-12-21T10:23:52.167Z,99118.86
2018-12-21T10:28:57.022Z,99128.58
2018-12-21T10:34:01.862Z,99127.95
2018-12-21T10:39:08.332Z,99131.63
2018-12-21T10:44:13.288Z,99116.11
2018-12-21T10:49:18.338Z,99127.91
2018-12-21T10:54:26.995Z,99115.17
2018-12-21T10:59:30.953Z,99089.04
2018-12-21T11:04:35.861Z,99056.95
2018-12-21T11:09:40.642Z,99087.96
2018-12-21T11:14:45.392Z,99087.89
2018-12-21T11:19:50.158Z,99101.77
2018-12-21T11:24:54.952Z,99100.38
2018-12-21T11:29:59.867Z,99124.64
2018-12-21T11:35:04.846Z,99145.35
2018-12-21T11:40:09.937Z,99138.19
2018-12-21T11:50:53.555Z,99116.55
2018-12-21T11:55:58.400Z,99113.09
2018-12-21T12:01:03.310Z,99121.43
2018-12-21T12:06:08.205Z,99109.78
2018-12-21T12:11:13.124Z,99110.70
2018-12-21T12:16:18.045Z,99096.63
2018-12-21T12:21:23.965Z,99086.73
2018-12-21T12:26:28.995Z,99074.66
2018-12-21T12:31:34.026Z,99081.58
2018-12-21T12:36:38.844Z,99086.03
2018-12-21T12:41:43.786Z,99094.27
2018-12-21T12:46:48.835Z,99090.27
2018-12-21T12:51:53.875Z,99089.96
2018-12-21T12:56:58.816Z,99094.87
2018-12-21T13:02:03.654Z,99096.88
2018-12-21T13:07:08.550Z,99122.47
2018-12-21T13:12:13.345Z,99126.59
2018-12-21T13:17:18.250Z,99136.02
2018-12-21T13:22:23.245Z,99137.89
2018-12-21T13:27:28.085Z,99139.77
2018-12-21T13:32:33.134Z,99145.53
2018-12-21T13:37:38.065Z,99151.10
2018-12-21T13:42:42.873Z,99165.95
2018-12-21T13:47:47.866Z,99168.06
2018-12-21T13:52:52.860Z,99161.78
2018-12-21T13:57:57.921Z,99170.21
2018-12-21T14:03:02.900Z,99175.36
2018-12-21T14:08:07.940Z,99177.19
2018-12-21T14:13:12.866Z,99171.24
2018-12-21T14:18:17.801Z,99172.66
2018-12-21T14:23:23.995Z,99175.62
2018-12-21T14:28:28.908Z,99176.31
2018-12-21T14:33:33.681Z,99167.50
2018-12-21T14:38:38.469Z,99180.73
2018-12-21T14:43:43.335Z,99187.63
2018-12-21T14:48:48.240Z,99191.55
2018-12-21T14:53:53.270Z,99192.34
2018-12-21T14:58:58.310Z,99201.78
2018-12-21T15:04:03.231Z,99203.72
2018-12-21T15:09:08.785Z,99211.59
2018-12-21T15:14:13.526Z,99220.13
2018-12-21T15:19:18.400Z,99209.92
2018-12-21T15:24:23.325Z,99216.20
2018-12-21T15:29:28.211Z,99222.88
2018-12-21T15:34:33.142Z,99229.56
2018-12-21T15:39:38.059Z,99232.30
2018-12-21T15:44:43.031Z,99228.48
2018-12-21T15:49:47.821Z,99229.31
2018-12-21T15:54:52.711Z,99235.22
2018-12-21T15:59:57.765Z,99235.16
2018-12-21T16:05:02.702Z,99238.73
2018-12-21T16:10:09.306Z,99244.00
2018-12-21T16:15:14.121Z,99239.37
2018-12-21T16:20:18.896Z,99240.17
2018-12-21T16:25:25.101Z,99236.94
2018-12-21T16:30:29.946Z,99244.35
2018-12-21T16:35:34.788Z,99248.17
2018-12-21T16:40:39.628Z,99246.53
2018-12-21T16:45:44.468Z,99256.76
2018-12-21T16:50:49.307Z,99265.33
2018-12-21T16:55:54.207Z,99257.62
2018-12-21T17:00:58.989Z,99259.98
2018-12-21T17:06:03.944Z,99258.12
2018-12-21T17:16:46.028Z,99266.09
2018-12-21T17:27:29.169Z,99275.92
2018-12-21T17:38:02.388Z,99281.19
2018-12-21T17:43:07.192Z,99277.08
2018-12-21T17:48:12.069Z,99284.72
2018-12-21T17:53:16.909Z,99286.83
2018-12-21T17:58:22.029Z,99296.41
2018-12-21T18:03:32.606Z,99299.02
2018-12-21T18:08:37.441Z,99291.77
2018-12-21T18:13:42.391Z,99290.78
2018-12-21T18:18:47.330Z,99301.86
2018-12-21T18:23:52.228Z,99306.01
2018-12-21T18:28:57.088Z,99308.83
2018-12-21T18:34:04.836Z,99308.44
2018-12-21T18:39:10.109Z,99312.94
2018-12-21T18:44:14.909Z,99314.59
2018-12-21T18:49:19.868Z,99303.27
2018-12-21T18:54:26.448Z,99307.25
2018-12-21T18:59:31.269Z,99315.02
2018-12-21T19:04:36.097Z,99331.61
2018-12-21T19:09:41.012Z,99336.53
2018-12-21T19:14:45.730Z,99338.96
2018-12-21T19:19:50.689Z,99357.66
2018-12-21T19:24:55.609Z,99357.10
2018-12-21T19:30:00.636Z,99350.95
2018-12-21T19:35:05.790Z,99352.09
2018-12-21T19:40:11.970Z,99357.16
2018-12-21T19:45:16.812Z,99373.19
2018-12-21T19:50:21.709Z,99380.95
2018-12-21T19:55:34.390Z,99397.63
2018-12-21T20:06:19.529Z,99412.50
2018-12-21T20:11:24.388Z,99414.53
2018-12-21T20:16:29.409Z,99419.16
2018-12-21T20:21:34.348Z,99424.17
2018-12-21T20:26:42.230Z,99433.16
2018-12-21T20:31:47.530Z,99430.49
2018-12-21T20:36:52.471Z,99439.52
2018-12-21T20:41:57.640Z,99444.33
2018-12-21T20:47:04.568Z,99459.61
2018-12-21T20:52:09.593Z,99463.16
2018-12-21T20:57:21.842Z,99467.03
2018-12-21T21:02:22.737Z,99481.97
2018-12-21T21:07:27.556Z,99482.40
2018-12-21T21:12:32.456Z,99492.52
2018-12-21T21:17:37.378Z,99493.23
2018-12-21T21:22:59.863Z,99505.35
2018-12-21T21:28:04.767Z,99511.02
2018-12-21T21:33:09.663Z,99516.05
2018-12-21T21:38:14.602Z,99527.40
2018-12-21T21:43:21.298Z,99528.78
2018-12-21T21:48:26.118Z,99534.77
2018-12-21T21:53:30.937Z,99550.86
2018-12-21T21:58:35.748Z,99560.20
2018-12-21T22:03:40.537Z,99575.05
2018-12-21T22:08:45.552Z,99585.92
2018-12-21T22:13:50.505Z,99588.72
2018-12-21T22:18:55.568Z,99594.12
2018-12-21T22:24:00.617Z,99603.07
2018-12-21T22:29:05.591Z,99606.13
2018-12-21T22:34:10.547Z,99609.86
2018-12-21T22:39:15.362Z,99622.09
2018-12-21T22:44:20.206Z,99615.42
2018-12-21T22:49:25.641Z,99626.55
2018-12-21T22:54:30.556Z,99635.05
2018-12-21T22:59:35.517Z,99645.00
2018-12-21T23:04:41.351Z,99652.00
2018-12-21T23:09:46.197Z,99646.72
2018-12-21T23:14:51.060Z,99664.20
2018-12-21T23:19:55.938Z,99663.86
2018-12-21T23:25:01.015Z,99670.08
2018-12-21T23:30:07.080Z,99686.66
2018-12-21T23:35:11.966Z,99687.05
2018-12-21T23:40:16.800Z,99680.77
2018-12-21T23:45:21.716Z,99690.45
2018-12-21T23:50:26.611Z,99696.94
2018-12-21T23:55:31.531Z,99688.99
